Urb Flamboyan Gdns, Puerto Rico
Current Conditions -  °F | °C
As of 1:56 PM on Monday 26 Jan 2015 (Local Time) from TJSJ Reporting Station
Scattered Clouds Scattered Clouds  
Wind Chill: 86°   Ceiling: Unl
Heat Index: 89°   Visibility: 10mi
Dew Point: 67°   Wind: 14mph
Humidity: 53%   Direction: 90°E
Pressure: 29.97"   Gusts: 22mph
Location:  18.1781°N, 66.1167°W
Report Text: TJSJ 261756Z 09012G19KT 060V130 10SM FEW043 SCT060 SCT075 30/19 A2997 RMK AO2 SLP148 T03000194 10306 20244 56023
Loading
Personal Weather Stations






























Interactive Weather Map New forecast layout! Learn more

10-Day Weather Forecast

Advertisements
Track Severe Weather on mobile